Time;durP1;ratioP1;P1;durP2;ratioP2;P2;SDS_P1;SDS_P2;PMS_P1;PMS_P2;Temp;Humidity;BMP_temperature;BMP_pressure;BME280_temperature;BME280_humidity;BME280_pressure;Samples;Min_cycle;Max_cycle;Signal;HPM_P1;HPM_P2
2022/09/07 00:00:56;;;;;;;4.17;2.10;;;14.20;1.00;;;;;;8345789;28;20189;-68
2022/09/07 00:04:57;;;;;;;3.43;2.40;;;14.10;1.00;;;;;;8344823;28;20267;-68
2022/09/07 00:08:58;;;;;;;2.87;1.93;;;14.10;1.00;;;;;;8348230;28;20197;-67
2022/09/07 00:12:59;;;;;;;4.10;2.33;;;14.00;1.00;;;;;;8347613;28;20209;-68
2022/09/07 00:16:59;;;;;;;3.77;2.00;;;13.90;1.00;;;;;;8347433;28;20188;-68
2022/09/07 00:21:07;;;;;;;3.33;1.90;;;13.80;1.00;;;;;;8336871;28;20198;-67
2022/09/07 00:25:09;;;;;;;3.60;1.70;;;13.70;24.30;;;;;;8363950;28;20182;-68
2022/09/07 00:29:10;;;;;;;6.43;2.67;;;13.70;41.10;;;;;;8360670;28;20220;-68
2022/09/07 00:33:11;;;;;;;4.00;2.30;;;13.70;87.20;;;;;;8345420;28;20178;-68
2022/09/07 00:37:12;;;;;;;4.30;2.90;;;13.60;93.30;;;;;;8344787;28;20178;-70
2022/09/07 00:41:14;;;;;;;4.37;3.33;;;13.50;99.90;;;;;;8340524;28;20257;-67
2022/09/07 00:45:19;;;;;;;4.87;3.60;;;13.50;99.90;;;;;;8354373;28;20197;-68
2022/09/07 00:49:22;;;;;;;3.87;2.90;;;13.40;99.90;;;;;;8349634;28;20318;-68
2022/09/07 00:53:38;;;;;;;3.23;2.03;;;13.30;99.90;;;;;;8351136;28;20186;-68
2022/09/07 00:57:44;;;;;;;7.90;2.57;;;13.30;99.90;;;;;;8350362;28;20192;-67
2022/09/07 01:01:45;;;;;;;2.80;2.20;;;13.20;99.90;;;;;;8352619;28;20224;-68
2022/09/07 01:05:54;;;;;;;2.83;2.00;;;13.10;99.90;;;;;;8350789;28;20196;-68
2022/09/07 01:09:56;;;;;;;3.73;2.27;;;13.00;99.90;;;;;;8355016;28;20201;-68
2022/09/07 01:13:57;;;;;;;4.70;2.40;;;12.90;99.90;;;;;;8351648;28;20367;-67
2022/09/07 01:18:42;;;;;;;5.50;2.33;;;12.90;99.90;;;;;;8351038;28;20205;-67
2022/09/07 01:22:48;;;;;;;3.23;2.50;;;12.90;1.00;;;;;;8339059;28;20198;-68
2022/09/07 01:26:52;;;;;;;6.60;4.20;;;12.80;1.00;;;;;;8364416;28;20237;-68
2022/09/07 01:30:58;;;;;;;9.43;4.10;;;12.80;1.00;;;;;;8339139;28;20217;-67
2022/09/07 01:35:04;;;;;;;5.80;2.87;;;12.80;1.00;;;;;;8352375;28;20230;-67
2022/09/07 01:39:05;;;;;;;3.53;2.47;;;12.80;1.00;;;;;;8349000;28;20242;-68
2022/09/07 01:43:16;;;;;;;3.30;2.50;;;12.80;1.00;;;;;;8348097;28;20599;-68
2022/09/07 01:47:40;;;;;;;2.97;1.93;;;12.70;1.00;;;;;;8348663;28;20181;-68
2022/09/07 01:51:48;;;;;;;4.10;2.60;;;12.60;1.00;;;;;;8346475;28;20235;-67
2022/09/07 01:56:03;;;;;;;5.13;2.60;;;12.50;1.00;;;;;;8351145;28;20289;-68
2022/09/07 02:00:09;;;;;;;3.57;2.23;;;12.50;99.90;;;;;;8367228;28;20193;-69
2022/09/07 02:04:40;;;;;;;3.87;2.20;;;12.50;56.80;;;;;;8338267;28;20197;-68
2022/09/07 02:08:55;;;;;;;4.27;2.30;;;12.50;22.20;;;;;;8330492;28;20665;-67
2022/09/07 02:13:21;;;;;;;5.33;2.57;;;12.50;29.50;;;;;;8361655;28;20291;-68
2022/09/07 02:17:36;;;;;;;4.87;2.50;;;12.40;99.90;;;;;;8353425;28;20185;-67
2022/09/07 02:21:41;;;;;;;4.30;2.40;;;12.40;99.90;;;;;;8347355;28;20228;-67
2022/09/07 02:25:52;;;;;;;5.37;2.73;;;12.30;99.90;;;;;;8348897;28;20189;-67
2022/09/07 02:29:53;;;;;;;3.33;2.60;;;12.30;99.90;;;;;;8346346;28;20213;-67
2022/09/07 02:33:54;;;;;;;5.70;2.50;;;12.30;99.90;;;;;;8348343;28;20208;-68
2022/09/07 02:37:55;;;;;;;6.90;3.10;;;12.30;99.90;;;;;;8349443;28;20186;-68
2022/09/07 02:41:56;;;;;;;5.17;3.13;;;12.40;99.90;;;;;;8348304;28;20189;-67
2022/09/07 02:46:03;;;;;;;4.30;2.93;;;12.30;99.90;;;;;;8348916;28;20215;-68
2022/09/07 02:50:22;;;;;;;5.17;2.87;;;12.20;99.90;;;;;;8339722;28;20212;-68
2022/09/07 02:54:22;;;;;;;4.47;2.90;;;12.20;99.90;;;;;;8339331;28;20212;-67
2022/09/07 02:58:41;;;;;;;6.73;3.10;;;12.10;99.90;;;;;;8347130;28;20197;-67
2022/09/07 03:03:11;;;;;;;4.53;2.93;;;12.20;99.90;;;;;;8345729;28;20192;-67
2022/09/07 03:07:15;;;;;;;4.17;3.27;;;12.20;99.90;;;;;;8343468;28;20246;-68
2022/09/07 03:11:16;;;;;;;4.33;2.87;;;12.20;99.90;;;;;;8344151;28;20542;-68
2022/09/07 03:15:23;;;;;;;5.60;2.87;;;12.20;99.90;;;;;;8346702;28;20181;-68
2022/09/07 03:19:24;;;;;;;3.57;2.60;;;12.10;99.90;;;;;;8344490;28;20201;-67
2022/09/07 03:23:24;;;;;;;4.23;2.37;;;12.00;99.90;;;;;;8346413;28;20201;-68
2022/09/07 03:27:25;;;;;;;3.60;2.50;;;11.90;99.90;;;;;;8346623;28;20261;-67
2022/09/07 03:31:26;;;;;;;3.70;2.60;;;11.90;99.90;;;;;;8344660;28;20193;-67
2022/09/07 03:35:27;;;;;;;4.67;2.70;;;11.90;99.90;;;;;;8340403;28;20182;-67
2022/09/07 03:39:29;;;;;;;4.60;3.20;;;11.90;99.90;;;;;;8342839;28;20311;-67
2022/09/07 03:43:31;;;;;;;6.43;2.90;;;11.90;99.90;;;;;;8345990;28;20196;-67
2022/09/07 03:47:38;;;;;;;5.10;3.40;;;11.90;99.90;;;;;;8346566;28;20210;-67
2022/09/07 03:51:39;;;;;;;5.10;3.00;;;11.90;99.90;;;;;;8344188;28;20192;-70
2022/09/07 03:55:40;;;;;;;4.73;3.00;;;11.80;99.90;;;;;;8345339;28;20292;-67
2022/09/07 03:59:41;;;;;;;4.43;3.10;;;11.80;99.90;;;;;;8344627;28;20207;-67
2022/09/07 04:03:43;;;;;;;5.63;3.10;;;11.70;99.90;;;;;;8342285;28;20196;-68
2022/09/07 04:07:43;;;;;;;5.20;3.20;;;11.70;99.90;;;;;;8365890;28;20521;-67
2022/09/07 04:11:44;;;;;;;4.50;2.60;;;11.80;99.90;;;;;;8346410;28;20227;-67
2022/09/07 04:15:45;;;;;;;6.50;3.20;;;11.80;99.90;;;;;;8362278;28;20189;-67
2022/09/07 04:19:46;;;;;;;4.00;2.87;;;11.80;99.90;;;;;;8343669;28;20217;-68
2022/09/07 04:23:47;;;;;;;5.63;2.87;;;11.70;99.90;;;;;;8337950;28;20196;-68
2022/09/07 04:27:48;;;;;;;5.23;3.40;;;11.70;99.90;;;;;;8345448;28;20212;-69
2022/09/07 04:31:48;;;;;;;3.90;2.67;;;11.70;99.90;;;;;;8343921;28;20218;-68
2022/09/07 04:35:49;;;;;;;5.20;3.13;;;11.70;99.90;;;;;;8341918;28;20316;-70
2022/09/07 04:39:50;;;;;;;5.07;3.20;;;11.70;99.90;;;;;;8343523;28;20277;-67
2022/09/07 04:43:56;;;;;;;6.20;2.87;;;11.70;99.90;;;;;;8345859;28;20240;-68
2022/09/07 04:47:57;;;;;;;6.13;3.20;;;11.70;99.90;;;;;;8342160;28;20208;-67
2022/09/07 04:51:58;;;;;;;5.40;3.03;;;11.80;90.40;;;;;;8338154;28;20257;-67
2022/09/07 04:55:59;;;;;;;4.03;2.50;;;11.90;6.10;;;;;;8368784;28;20187;-67
2022/09/07 05:00:00;;;;;;;5.80;2.77;;;12.00;1.00;;;;;;8343863;28;20188;-68
2022/09/07 05:04:03;;;;;;;8.23;3.40;;;12.10;1.00;;;;;;8341751;28;20204;-67
2022/09/07 05:08:04;;;;;;;5.80;3.70;;;12.10;1.00;;;;;;8342641;28;20206;-67
2022/09/07 05:12:05;;;;;;;6.23;3.40;;;12.30;99.90;;;;;;8344399;28;20208;-68
2022/09/07 05:16:08;;;;;;;7.13;3.50;;;12.40;99.90;;;;;;8343613;28;20216;-68
2022/09/07 05:20:09;;;;;;;5.33;3.30;;;12.60;99.90;;;;;;8338466;28;20204;-68
2022/09/07 05:24:10;;;;;;;4.67;3.30;;;12.70;99.90;;;;;;8345215;28;20276;-67
2022/09/07 05:28:11;;;;;;;4.60;3.13;;;12.90;99.90;;;;;;8347590;28;20213;-68
2022/09/07 05:32:12;;;;;;;3.90;3.00;;;13.00;99.90;;;;;;8364172;28;20692;-68
2022/09/07 05:36:13;;;;;;;7.97;3.70;;;13.10;60.20;;;;;;8350599;28;20178;-69
2022/09/07 05:40:14;;;;;;;9.73;4.30;;;13.30;28.10;;;;;;8346614;28;20343;-68
2022/09/07 05:44:15;;;;;;;5.57;3.73;;;13.40;1.00;;;;;;8350083;28;20192;-67
2022/09/07 05:48:16;;;;;;;8.47;3.50;;;13.60;1.00;;;;;;8349112;28;20235;-68
2022/09/07 05:52:17;;;;;;;6.13;3.43;;;13.70;1.00;;;;;;8348129;28;20185;-67
2022/09/07 05:56:20;;;;;;;9.10;3.67;;;13.80;1.00;;;;;;8350911;28;20174;-68
2022/09/07 06:00:22;;;;;;;5.37;3.20;;;14.00;1.00;;;;;;8350567;28;20202;-68
2022/09/07 06:04:22;;;;;;;6.10;3.63;;;14.10;1.00;;;;;;8345316;28;20189;-66
2022/09/07 06:08:23;;;;;;;6.20;3.57;;;14.20;1.00;;;;;;8347225;28;20202;-67
2022/09/07 06:12:24;;;;;;;7.43;3.83;;;14.40;1.00;;;;;;8349181;28;20251;-67
2022/09/07 06:16:25;;;;;;;8.73;3.67;;;14.60;1.00;;;;;;8347148;28;20185;-67
2022/09/07 06:20:25;;;;;;;4.07;3.10;;;14.70;1.00;;;;;;8346899;28;20280;-67
2022/09/07 06:24:26;;;;;;;8.23;4.43;;;14.90;1.00;;;;;;8348703;28;20188;-67
2022/09/07 06:28:33;;;;;;;6.23;3.93;;;15.00;99.90;;;;;;8349042;28;20463;-67
2022/09/07 06:32:37;;;;;;;7.53;4.27;;;15.10;99.90;;;;;;8349672;28;20487;-68
2022/09/07 06:36:38;;;;;;;6.83;3.50;;;15.20;99.90;;;;;;8379684;28;20265;-68
2022/09/07 06:40:40;;;;;;;7.90;3.43;;;15.50;99.90;;;;;;8348990;28;20178;-67
2022/09/07 06:44:41;;;;;;;8.60;4.30;;;15.60;99.90;;;;;;8347728;28;20186;-69
2022/09/07 06:48:42;;;;;;;7.80;4.13;;;15.80;99.90;;;;;;8349676;28;21047;-67
2022/09/07 06:52:43;;;;;;;5.87;3.53;;;16.00;99.90;;;;;;8348533;28;20177;-68
2022/09/07 06:56:44;;;;;;;7.67;4.27;;;16.10;99.90;;;;;;8346433;28;20236;-68
2022/09/07 07:00:45;;;;;;;8.83;3.93;;;16.20;99.90;;;;;;8349091;28;20213;-67
2022/09/07 07:04:46;;;;;;;5.73;3.70;;;16.40;99.90;;;;;;8344083;28;20193;-67
2022/09/07 07:08:53;;;;;;;6.67;3.87;;;16.50;99.90;;;;;;8347974;28;20300;-67
2022/09/07 07:12:56;;;;;;;6.63;3.97;;;16.60;99.90;;;;;;8347445;28;20198;-67
2022/09/07 07:16:57;;;;;;;5.13;3.50;;;16.80;99.90;;;;;;8348099;28;20185;-68
2022/09/07 07:21:00;;;;;;;6.13;3.60;;;17.00;99.90;;;;;;8345517;28;20232;-68
2022/09/07 07:25:01;;;;;;;7.23;3.80;;;17.20;99.90;;;;;;8335945;28;20212;-67
2022/09/07 07:29:02;;;;;;;5.70;3.60;;;17.30;99.90;;;;;;8345587;28;20201;-67
2022/09/07 07:33:03;;;;;;;5.00;4.30;;;17.40;99.90;;;;;;8343984;28;20240;-67
2022/09/07 07:37:04;;;;;;;7.63;3.77;;;17.60;99.90;;;;;;8346319;28;20277;-68
2022/09/07 07:41:05;;;;;;;8.30;5.50;;;17.70;99.90;;;;;;8347228;28;20188;-68
2022/09/07 07:45:08;;;;;;;6.60;3.47;;;17.90;99.90;;;;;;8343369;28;20272;-68
2022/09/07 07:49:08;;;;;;;6.90;3.60;;;18.00;99.90;;;;;;8345570;28;20281;-67
2022/09/07 07:53:09;;;;;;;7.07;3.50;;;18.10;99.90;;;;;;8344702;28;20181;-68
2022/09/07 07:57:10;;;;;;;5.83;3.53;;;18.30;99.90;;;;;;8344535;28;20181;-67
2022/09/07 08:01:14;;;;;;;6.17;4.10;;;18.40;99.90;;;;;;8334941;28;20192;-67
2022/09/07 08:05:16;;;;;;;4.57;3.70;;;18.60;99.90;;;;;;8343629;28;20288;-67
2022/09/07 08:09:16;;;;;;;5.10;3.83;;;18.80;99.90;;;;;;8345842;28;20337;-67
2022/09/07 08:13:18;;;;;;;8.00;4.50;;;19.00;99.90;;;;;;8344380;28;20194;-67
2022/09/07 08:17:19;;;;;;;7.13;4.20;;;19.00;99.90;;;;;;8346369;28;20178;-67
2022/09/07 08:21:19;;;;;;;7.63;4.63;;;19.10;99.90;;;;;;8345384;28;20194;-68
2022/09/07 08:25:20;;;;;;;8.17;4.03;;;19.20;99.90;;;;;;8346744;28;20190;-68
2022/09/07 08:29:21;;;;;;;6.60;3.70;;;19.40;99.90;;;;;;8348054;28;20313;-68
2022/09/07 08:33:22;;;;;;;8.83;3.97;;;19.60;99.90;;;;;;8344521;28;20178;-68
2022/09/07 08:37:23;;;;;;;5.80;3.63;;;19.80;99.90;;;;;;8343961;28;20192;-68
2022/09/07 08:41:54;;;;;;;5.80;4.30;;;20.10;99.90;;;;;;8347845;28;20633;-68
2022/09/07 08:46:14;;;;;;;6.30;4.13;;;20.40;99.90;;;;;;8344468;28;20206;-68
2022/09/07 08:50:23;;;;;;;5.37;4.20;;;20.50;99.90;;;;;;8344123;28;20210;-67
2022/09/07 08:54:25;;;;;;;5.47;3.93;;;20.60;99.90;;;;;;8359468;28;20178;-68
2022/09/07 08:58:49;;;;;;;4.70;3.70;;;20.60;99.90;;;;;;8344957;28;20239;-69
2022/09/07 09:02:50;;;;;;;9.23;4.43;;;20.70;99.90;;;;;;8343135;28;20186;-69
2022/09/07 09:07:09;;;;;;;7.13;4.57;;;21.00;99.90;;;;;;8351036;28;20182;-68
2022/09/07 09:11:38;;;;;;;7.30;4.10;;;21.20;98.70;;;;;;8348870;28;20254;-68
2022/09/07 09:16:03;;;;;;;6.10;3.73;;;21.50;99.90;;;;;;8350460;28;20243;-68
2022/09/07 09:20:13;;;;;;;6.97;3.93;;;21.70;98.50;;;;;;8351773;28;20197;-68
2022/09/07 09:24:18;;;;;;;5.23;3.73;;;22.00;95.30;;;;;;8349466;28;20182;-67
2022/09/07 09:28:18;;;;;;;7.67;4.83;;;22.20;89.00;;;;;;8351334;28;20216;-68
2022/09/07 09:32:41;;;;;;;9.30;4.47;;;22.40;48.70;;;;;;8345827;28;20401;-68
2022/09/07 09:36:47;;;;;;;8.93;4.40;;;22.70;30.50;;;;;;8346294;28;20517;-68
2022/09/07 09:40:52;;;;;;;6.47;4.10;;;22.90;27.80;;;;;;8364631;28;20240;-68
2022/09/07 09:44:53;;;;;;;7.33;4.23;;;23.20;32.80;;;;;;8341961;28;20561;-68
2022/09/07 09:48:56;;;;;;;6.20;3.80;;;23.40;53.00;;;;;;8351518;28;20217;-66
2022/09/07 09:52:58;;;;;;;7.40;4.30;;;23.80;17.30;;;;;;8348165;28;20214;-65
2022/09/07 09:56:59;;;;;;;5.40;4.07;;;24.10;1.00;;;;;;8358308;28;20231;-68
2022/09/07 10:01:02;;;;;;;6.13;4.50;;;23.90;6.20;;;;;;8365486;28;20308;-68
2022/09/07 10:05:26;;;;;;;6.77;4.00;;;23.90;1.00;;;;;;8347883;28;20190;-67
2022/09/07 10:09:48;;;;;;;8.27;4.37;;;24.00;3.30;;;;;;8356307;28;20316;-68
2022/09/07 10:13:56;;;;;;;6.20;4.23;;;24.00;1.00;;;;;;8349913;28;20199;-68
2022/09/07 10:17:58;;;;;;;4.47;3.73;;;23.90;12.10;;;;;;8348713;28;20216;-68
2022/09/07 10:22:03;;;;;;;5.53;3.80;;;23.80;7.10;;;;;;8350440;28;20207;-67
2022/09/07 10:26:27;;;;;;;8.37;4.43;;;23.80;1.00;;;;;;8350150;28;20186;-68
2022/09/07 10:30:51;;;;;;;6.03;3.77;;;23.80;1.00;;;;;;8360116;28;20205;-68
2022/09/07 10:35:20;;;;;;;8.07;4.10;;;23.90;1.00;;;;;;8340584;28;20216;-67
2022/09/07 10:39:42;;;;;;;5.87;3.67;;;23.80;1.00;;;;;;8347407;28;20390;-68
2022/09/07 10:43:44;;;;;;;7.37;3.97;;;23.80;1.00;;;;;;8350032;28;20189;-72
2022/09/07 10:48:04;;;;;;;7.07;3.97;;;23.90;1.00;;;;;;8349613;28;20210;-68
2022/09/07 10:52:31;;;;;;;5.70;3.57;;;24.40;1.00;;;;;;8349969;28;20253;-67
2022/09/07 10:56:38;;;;;;;6.63;4.22;;;24.80;1.00;;;;;;8380804;28;20224;-65
2022/09/07 11:01:13;;;;;;;6.80;4.33;;;24.90;1.00;;;;;;8352579;28;20186;-66
2022/09/07 11:05:23;;;;;;;10.27;4.43;;;24.80;1.00;;;;;;8347863;28;20186;-67
2022/09/07 11:09:47;;;;;;;9.07;4.10;;;25.00;1.00;;;;;;8345057;28;20209;-66
2022/09/07 11:13:52;;;;;;;10.38;3.97;;;25.20;1.00;;;;;;8348498;28;20233;-67
2022/09/07 11:18:06;;;;;;;7.78;3.40;;;25.30;1.00;;;;;;8346837;28;20455;-66
2022/09/07 11:22:26;;;;;;;6.10;3.83;;;25.30;1.00;;;;;;8345261;28;20205;-66
2022/09/07 11:26:30;;;;;;;5.75;3.80;;;25.30;1.00;;;;;;8345670;28;20208;-66
2022/09/07 11:30:39;;;;;;;7.05;3.55;;;25.20;1.00;;;;;;8349831;28;20217;-67
2022/09/07 11:34:42;;;;;;;5.55;4.20;;;25.10;1.00;;;;;;8343369;28;20178;-67
2022/09/07 11:38:53;;;;;;;7.00;3.80;;;25.20;1.00;;;;;;8347833;28;20281;-66
2022/09/07 11:43:03;;;;;;;7.75;3.60;;;25.40;1.00;;;;;;8376803;28;20192;-66
2022/09/07 11:47:27;;;;;;;8.50;3.50;;;25.60;1.00;;;;;;8344088;28;20300;-66
2022/09/07 11:51:41;;;;;;;4.07;3.45;;;25.70;1.00;;;;;;8340557;28;20177;-66
2022/09/07 11:55:47;;;;;;;9.73;3.83;;;25.90;1.00;;;;;;8349946;28;20182;-66
2022/09/07 11:59:53;;;;;;;4.65;3.50;;;25.80;1.00;;;;;;8346316;28;20181;-67
2022/09/07 12:04:31;;;;;;;6.63;3.83;;;25.90;1.00;;;;;;8345140;28;20181;-69
2022/09/07 12:08:53;;;;;;;5.13;3.70;;;25.90;1.00;;;;;;8342176;28;20228;-66
2022/09/07 12:13:31;;;;;;;9.38;4.20;;;26.00;1.00;;;;;;8337475;28;20201;-66
2022/09/07 12:17:49;;;;;;;5.88;3.40;;;26.10;1.00;;;;;;8347901;28;20215;-66
2022/09/07 12:21:50;;;;;;;5.03;3.42;;;26.10;1.00;;;;;;8347480;28;20208;-66
2022/09/07 12:25:51;;;;;;;5.32;3.95;;;26.30;1.00;;;;;;8336262;28;20195;-67
2022/09/07 12:30:01;;;;;;;6.90;4.50;;;26.30;1.00;;;;;;8360639;28;20273;-68
2022/09/07 12:34:32;;;;;;;7.90;4.25;;;26.40;1.00;;;;;;8335566;28;20593;-66
2022/09/07 12:38:51;;;;;;;5.47;3.92;;;26.50;1.00;;;;;;8334404;28;20185;-67
2022/09/07 12:43:11;;;;;;;4.90;4.00;;;26.40;1.00;;;;;;8364394;28;20329;-66
2022/09/07 12:47:13;;;;;;;7.47;4.80;;;26.40;1.00;;;;;;8350973;28;20229;-67
2022/09/07 12:51:22;;;;;;;9.23;3.78;;;26.40;1.00;;;;;;8351937;28;20201;-66
2022/09/07 12:55:37;;;;;;;5.95;3.92;;;26.50;1.00;;;;;;8352121;28;20182;-67
2022/09/07 12:59:46;;;;;;;7.07;3.97;;;26.40;1.00;;;;;;8351543;28;20186;-65
2022/09/07 13:04:11;;;;;;;7.45;4.53;;;26.40;1.00;;;;;;8348122;28;20193;-66
2022/09/07 13:08:36;;;;;;;6.63;4.25;;;26.50;1.00;;;;;;8382789;28;20209;-66
2022/09/07 13:12:43;;;;;;;8.27;3.97;;;26.60;1.00;;;;;;8345509;28;20194;-66
2022/09/07 13:16:46;;;;;;;8.35;4.50;;;26.60;1.00;;;;;;8366486;28;20292;-66
2022/09/07 13:21:06;;;;;;;15.23;4.65;;;26.60;1.00;;;;;;8364450;28;20225;-66
2022/09/07 13:25:08;;;;;;;6.68;3.80;;;26.90;1.00;;;;;;8348109;28;20422;-67
2022/09/07 13:29:15;;;;;;;6.53;4.70;;;26.80;1.00;;;;;;8349583;28;20387;-65
2022/09/07 13:33:27;;;;;;;6.07;4.45;;;26.80;1.00;;;;;;8363446;28;20179;-66
2022/09/07 13:37:33;;;;;;;8.88;4.20;;;26.60;1.00;;;;;;8349678;28;20178;-67
2022/09/07 13:41:41;;;;;;;9.10;4.32;;;26.50;1.00;;;;;;8351407;28;20182;-67
2022/09/07 13:45:53;;;;;;;10.82;4.30;;;26.20;1.00;;;;;;8367530;28;20185;-67
2022/09/07 13:50:30;;;;;;;6.18;3.72;;;26.10;1.00;;;;;;8347566;28;20213;-68
2022/09/07 13:54:58;;;;;;;7.63;4.18;;;26.30;1.00;;;;;;8346761;28;20208;-68
2022/09/07 13:59:09;;;;;;;5.47;4.00;;;26.30;1.00;;;;;;8353844;28;20612;-68
2022/09/07 14:03:15;;;;;;;7.10;4.13;;;26.30;1.00;;;;;;8346807;28;20189;-69
2022/09/07 14:07:19;;;;;;;5.63;4.30;;;26.10;1.00;;;;;;8347704;28;20177;-67
2022/09/07 14:11:28;;;;;;;7.07;4.13;;;26.00;1.00;;;;;;8347628;28;20206;-66
2022/09/07 14:15:35;;;;;;;8.23;4.32;;;26.00;1.00;;;;;;8350715;28;20324;-67
2022/09/07 14:19:41;;;;;;;5.63;4.28;;;26.20;1.00;;;;;;8347679;28;20259;-67
2022/09/07 14:23:42;;;;;;;6.65;4.45;;;26.10;1.00;;;;;;8344121;28;20193;-67
2022/09/07 14:27:45;;;;;;;7.75;3.83;;;26.10;1.00;;;;;;8351858;28;20281;-67
2022/09/07 14:31:45;;;;;;;6.57;4.45;;;26.00;1.00;;;;;;8347750;28;20567;-69
2022/09/07 14:35:48;;;;;;;5.18;3.90;;;25.80;1.00;;;;;;8356049;28;20252;-67
2022/09/07 14:39:51;;;;;;;4.75;3.72;;;25.70;1.00;;;;;;8349955;28;20190;-67
2022/09/07 14:43:53;;;;;;;6.47;3.97;;;25.60;1.00;;;;;;8347149;28;20186;-67
2022/09/07 14:47:55;;;;;;;5.57;3.92;;;25.60;1.00;;;;;;8345158;28;20217;-67
2022/09/07 14:51:56;;;;;;;6.63;4.32;;;25.60;1.00;;;;;;8348534;28;20181;-67
2022/09/07 14:56:20;;;;;;;8.43;4.60;;;25.60;1.00;;;;;;8350508;28;20177;-67
2022/09/07 15:00:31;;;;;;;8.85;4.25;;;25.70;1.00;;;;;;8363313;28;20190;-68
2022/09/07 15:04:31;;;;;;;7.05;4.32;;;25.70;1.00;;;;;;8347166;28;20186;-66
2022/09/07 15:08:37;;;;;;;6.10;4.28;;;25.70;1.00;;;;;;8347708;28;20198;-66
2022/09/07 15:12:42;;;;;;;7.28;5.00;;;25.70;1.00;;;;;;8345483;28;20204;-66
2022/09/07 15:16:43;;;;;;;7.63;4.93;;;25.60;1.00;;;;;;8337997;28;20186;-67
2022/09/07 15:20:44;;;;;;;8.00;5.32;;;25.60;1.00;;;;;;8347691;28;20253;-66
2022/09/07 15:24:48;;;;;;;6.28;4.32;;;25.50;4.30;;;;;;8342818;28;20182;-66
2022/09/07 15:28:49;;;;;;;9.57;4.95;;;25.40;3.30;;;;;;8346326;28;20585;-66
2022/09/07 15:32:50;;;;;;;7.30;4.78;;;25.30;10.30;;;;;;8344080;28;20181;-66
2022/09/07 15:36:53;;;;;;;5.70;3.85;;;25.20;11.10;;;;;;8347696;28;20185;-65
2022/09/07 15:40:56;;;;;;;6.93;4.43;;;25.10;19.70;;;;;;8345042;28;20280;-65
2022/09/07 15:44:57;;;;;;;6.63;4.07;;;25.00;21.10;;;;;;8349356;28;20256;-66
2022/09/07 15:48:59;;;;;;;6.63;4.55;;;25.00;23.50;;;;;;8346763;28;20202;-65
2022/09/07 15:52:59;;;;;;;5.97;4.50;;;24.90;32.50;;;;;;8347111;28;20182;-65
2022/09/07 15:57:00;;;;;;;6.63;4.23;;;24.90;38.20;;;;;;8347239;28;20179;-65
2022/09/07 16:01:02;;;;;;;4.87;4.37;;;24.90;42.80;;;;;;8346129;28;20475;-65
2022/09/07 16:05:04;;;;;;;5.73;4.00;;;25.00;38.80;;;;;;8347302;28;20178;-65
2022/09/07 16:09:05;;;;;;;9.33;5.40;;;25.10;40.80;;;;;;8346221;28;20209;-67
2022/09/07 16:13:06;;;;;;;8.73;5.90;;;25.10;35.10;;;;;;8347590;28;20312;-65
2022/09/07 16:17:07;;;;;;;7.57;6.00;;;25.00;44.00;;;;;;8348334;28;20178;-66
2022/09/07 16:21:11;;;;;;;5.33;4.77;;;24.90;47.40;;;;;;8348083;28;20263;-66
2022/09/07 16:25:11;;;;;;;65.33;58.83;;;24.80;51.30;;;;;;8376800;28;20188;-65
2022/09/07 16:29:12;;;;;;;6.43;5.67;;;24.70;49.80;;;;;;8346346;28;20205;-65
2022/09/07 16:33:13;;;;;;;9.77;8.77;;;24.50;58.20;;;;;;8346992;28;20182;-66
2022/09/07 16:37:15;;;;;;;28.40;25.57;;;24.40;70.00;;;;;;8344948;28;20199;-66
2022/09/07 16:41:18;;;;;;;29.00;25.90;;;24.20;80.70;;;;;;8346848;28;20613;-66
2022/09/07 16:45:18;;;;;;;10.10;8.03;;;24.00;93.70;;;;;;8379040;28;20204;-68
2022/09/07 16:49:19;;;;;;;7.43;6.07;;;23.80;99.90;;;;;;8347096;28;20209;-66
2022/09/07 16:53:20;;;;;;;9.67;6.63;;;23.60;99.90;;;;;;8346871;28;20178;-66
2022/09/07 16:57:21;;;;;;;13.93;10.30;;;23.40;99.90;;;;;;8350284;28;20182;-72
2022/09/07 17:01:27;;;;;;;9.50;6.07;;;23.20;99.90;;;;;;8346527;28;20182;-66
2022/09/07 17:05:30;;;;;;;12.93;8.07;;;23.10;99.90;;;;;;8349705;28;20175;-66
2022/09/07 17:09:30;;;;;;;6.57;5.63;;;23.00;99.90;;;;;;8348060;28;20212;-66
2022/09/07 17:13:33;;;;;;;7.07;5.33;;;22.90;99.90;;;;;;8346334;28;20227;-66
2022/09/07 17:17:33;;;;;;;9.33;6.57;;;22.70;99.90;;;;;;8347627;28;20178;-66
2022/09/07 17:21:37;;;;;;;11.87;7.47;;;22.50;99.90;;;;;;8338594;28;20202;-67
2022/09/07 17:25:38;;;;;;;9.90;6.60;;;22.30;99.90;;;;;;8346627;28;20182;-67
2022/09/07 17:29:39;;;;;;;19.10;16.10;;;22.10;99.90;;;;;;8352347;28;20263;-67
2022/09/07 17:33:41;;;;;;;18.43;15.53;;;21.90;99.90;;;;;;8349865;28;20182;-68
2022/09/07 17:37:41;;;;;;;14.17;10.40;;;21.70;99.90;;;;;;8349712;28;20489;-67
2022/09/07 17:41:42;;;;;;;13.30;9.20;;;21.60;99.90;;;;;;8352387;28;20235;-68
2022/09/07 17:45:43;;;;;;;10.77;8.00;;;21.40;99.90;;;;;;8353546;28;20261;-68
2022/09/07 17:49:44;;;;;;;8.37;6.00;;;21.20;99.90;;;;;;8352549;28;20206;-68
2022/09/07 17:53:45;;;;;;;9.90;6.70;;;21.00;99.90;;;;;;8350056;28;20177;-68
2022/09/07 17:57:46;;;;;;;6.97;6.27;;;20.70;99.90;;;;;;8383953;28;20208;-68
2022/09/07 18:01:47;;;;;;;9.30;6.70;;;20.60;1.00;;;;;;8353533;28;20190;-67
2022/09/07 18:05:52;;;;;;;9.70;7.07;;;20.50;1.00;;;;;;8349537;28;20182;-68
2022/09/07 18:09:54;;;;;;;13.80;9.13;;;20.40;1.00;;;;;;8351623;28;20241;-67
2022/09/07 18:13:56;;;;;;;10.50;8.00;;;20.30;1.00;;;;;;8351566;28;20321;-68
2022/09/07 18:17:57;;;;;;;6.97;5.97;;;20.20;1.00;;;;;;8386728;28;20181;-67
2022/09/07 18:21:59;;;;;;;8.30;5.83;;;20.00;1.00;;;;;;8353338;28;20206;-67
2022/09/07 18:26:00;;;;;;;7.17;5.47;;;19.80;1.00;;;;;;8350366;28;20182;-68
2022/09/07 18:30:01;;;;;;;6.03;5.10;;;19.60;1.00;;;;;;8353067;28;20215;-68
2022/09/07 18:34:02;;;;;;;6.10;4.63;;;19.40;1.00;;;;;;8352389;28;20241;-68
2022/09/07 18:38:05;;;;;;;6.77;5.33;;;19.30;2.70;;;;;;8348370;28;20300;-68
2022/09/07 18:42:06;;;;;;;5.60;4.93;;;19.20;27.00;;;;;;8351408;28;20186;-67
2022/09/07 18:46:12;;;;;;;6.77;5.40;;;19.10;51.30;;;;;;8351096;28;20214;-67
2022/09/07 18:50:13;;;;;;;6.80;6.10;;;18.90;95.80;;;;;;8352698;28;20278;-67
2022/09/07 18:54:14;;;;;;;6.80;5.83;;;18.90;99.90;;;;;;8346245;28;20286;-68
2022/09/07 18:58:15;;;;;;;6.57;5.80;;;18.80;99.90;;;;;;8349621;28;20235;-67
2022/09/07 19:02:17;;;;;;;7.30;6.60;;;18.70;99.90;;;;;;8350587;28;20185;-68
2022/09/07 19:06:18;;;;;;;9.97;8.27;;;18.60;99.90;;;;;;8350262;28;20197;-67
2022/09/07 19:10:19;;;;;;;9.00;7.07;;;18.60;99.90;;;;;;8350068;28;20209;-67
2022/09/07 19:14:20;;;;;;;8.80;6.70;;;18.50;99.90;;;;;;8351557;28;20201;-68
2022/09/07 19:18:21;;;;;;;7.50;6.40;;;18.30;99.90;;;;;;8348174;28;20215;-68
2022/09/07 19:22:22;;;;;;;10.63;7.07;;;18.30;99.90;;;;;;8348762;28;20198;-67
2022/09/07 19:26:25;;;;;;;9.50;7.07;;;18.20;99.90;;;;;;8354197;28;20209;-67
2022/09/07 19:30:26;;;;;;;7.93;6.60;;;18.10;99.90;;;;;;8348409;28;20210;-67
2022/09/07 19:34:27;;;;;;;8.70;7.40;;;18.00;99.90;;;;;;8352566;28;20185;-67
2022/09/07 19:38:28;;;;;;;8.73;7.83;;;17.90;99.90;;;;;;8347985;28;20603;-67
2022/09/07 19:42:29;;;;;;;10.07;9.00;;;17.90;99.90;;;;;;8347412;28;20185;-67
2022/09/07 19:46:30;;;;;;;13.03;10.67;;;17.90;1.00;;;;;;8349854;28;20186;-67
2022/09/07 19:50:31;;;;;;;16.53;11.77;;;17.80;99.90;;;;;;8345781;28;20216;-68
2022/09/07 19:54:32;;;;;;;28.97;17.77;;;17.60;1.00;;;;;;8352756;28;20169;-67
2022/09/07 19:58:35;;;;;;;21.40;14.77;;;17.30;99.90;;;;;;8348361;28;20190;-67
2022/09/07 20:02:36;;;;;;;17.33;12.97;;;17.10;58.70;;;;;;8344640;28;20178;-68
2022/09/07 20:06:38;;;;;;;17.03;13.13;;;17.00;99.90;;;;;;8347288;28;20178;-68
2022/09/07 20:10:39;;;;;;;15.00;11.60;;;16.90;69.60;;;;;;8365091;28;20202;-68
2022/09/07 20:14:40;;;;;;;11.20;9.27;;;16.90;1.00;;;;;;8348156;28;20205;-68
2022/09/07 20:18:41;;;;;;;14.07;10.43;;;16.80;99.90;;;;;;8347392;28;20186;-68
2022/09/07 20:22:42;;;;;;;15.43;12.10;;;16.80;99.90;;;;;;8349102;28;20257;-67
2022/09/07 20:26:44;;;;;;;12.00;9.67;;;16.70;99.90;;;;;;8348877;28;20202;-68
2022/09/07 20:30:45;;;;;;;14.07;11.37;;;16.70;99.90;;;;;;8347711;28;20202;-68
2022/09/07 20:34:46;;;;;;;13.93;11.37;;;16.70;99.90;;;;;;8345952;28;20562;-67
2022/09/07 20:38:52;;;;;;;12.83;9.70;;;16.60;99.90;;;;;;8347908;28;20255;-68
2022/09/07 20:42:53;;;;;;;12.50;9.00;;;16.60;44.20;;;;;;8345897;28;20194;-68
2022/09/07 20:46:54;;;;;;;10.17;8.90;;;16.60;91.20;;;;;;8345815;28;20507;-68
2022/09/07 20:50:56;;;;;;;9.73;8.73;;;16.50;74.10;;;;;;8345903;28;20237;-68
2022/09/07 20:54:57;;;;;;;12.23;9.87;;;16.50;99.90;;;;;;8348624;28;20273;-67
2022/09/07 20:59:00;;;;;;;10.50;8.50;;;16.50;99.90;;;;;;8350192;28;20215;-67
2022/09/07 21:03:01;;;;;;;11.90;8.87;;;16.50;99.90;;;;;;8352969;28;20210;-68
2022/09/07 21:07:02;;;;;;;9.50;7.97;;;16.50;1.00;;;;;;8353714;28;20195;-68
2022/09/07 21:11:07;;;;;;;9.53;8.53;;;16.40;1.00;;;;;;8352260;28;20267;-68
2022/09/07 21:15:08;;;;;;;12.63;9.23;;;16.40;1.00;;;;;;8369428;28;20174;-68
2022/09/07 21:19:12;;;;;;;13.97;9.63;;;16.30;1.00;;;;;;8348983;28;20196;-68